sensor_id;sensor_type;location;lat;lon;timestamp;pressure;altitude;pressure_sealevel;temperature;humidity
43814;BME280;29669;55.706;37.656;2023-03-15T00:02:20;99381.22;;;5.13;nan
43814;BME280;29669;55.706;37.656;2023-03-15T00:04:50;99380.81;;;5.08;nan
43814;BME280;29669;55.706;37.656;2023-03-15T00:07:18;99381.22;;;5.03;nan
43814;BME280;29669;55.706;37.656;2023-03-15T00:09:45;99395.31;;;4.99;nan
43814;BME280;29669;55.706;37.656;2023-03-15T00:12:13;99381.09;;;4.95;nan
43814;BME280;29669;55.706;37.656;2023-03-15T00:14:41;99388.28;;;4.92;nan
43814;BME280;29669;55.706;37.656;2023-03-15T00:17:09;99382.59;;;4.88;nan
43814;BME280;29669;55.706;37.656;2023-03-15T00:19:38;99379.47;;;4.85;nan
43814;BME280;29669;55.706;37.656;2023-03-15T00:22:06;99383.81;;;4.84;nan
43814;BME280;29669;55.706;37.656;2023-03-15T00:24:34;99385.03;;;4.80;nan
43814;BME280;29669;55.706;37.656;2023-03-15T00:27:06;99386.09;;;4.77;nan
43814;BME280;29669;55.706;37.656;2023-03-15T00:29:35;99388.28;;;4.72;nan
43814;BME280;29669;55.706;37.656;2023-03-15T00:32:02;99381.09;;;4.66;nan
43814;BME280;29669;55.706;37.656;2023-03-15T00:34:31;99383.81;;;4.65;nan
43814;BME280;29669;55.706;37.656;2023-03-15T00:37:07;99382.84;;;4.66;nan
43814;BME280;29669;55.706;37.656;2023-03-15T00:39:36;99370.13;;;4.64;nan
43814;BME280;29669;55.706;37.656;2023-03-15T00:42:07;99382.16;;;4.64;nan
43814;BME280;29669;55.706;37.656;2023-03-15T00:44:43;99382.44;;;4.61;nan
43814;BME280;29669;55.706;37.656;2023-03-15T00:47:12;99375.41;;;4.63;nan
43814;BME280;29669;55.706;37.656;2023-03-15T00:49:44;99374.75;;;4.70;nan
43814;BME280;29669;55.706;37.656;2023-03-15T00:52:12;99376.25;;;4.83;nan
43814;BME280;29669;55.706;37.656;2023-03-15T00:54:40;99378.38;;;4.97;nan
43814;BME280;29669;55.706;37.656;2023-03-15T00:57:12;99381.75;;;5.07;nan
43814;BME280;29669;55.706;37.656;2023-03-15T00:59:43;99376.59;;;5.16;nan
43814;BME280;29669;55.706;37.656;2023-03-15T01:02:11;99372.53;;;5.23;nan
43814;BME280;29669;55.706;37.656;2023-03-15T01:04:39;99374.25;;;5.32;nan
43814;BME280;29669;55.706;37.656;2023-03-15T01:07:07;99375.47;;;5.38;nan
43814;BME280;29669;55.706;37.656;2023-03-15T01:09:37;99370.06;;;5.41;nan
43814;BME280;29669;55.706;37.656;2023-03-15T01:12:05;99374.09;;;5.43;nan
43814;BME280;29669;55.706;37.656;2023-03-15T01:14:33;99373.28;;;5.43;nan
43814;BME280;29669;55.706;37.656;2023-03-15T01:17:04;99373.28;;;5.43;nan
43814;BME280;29669;55.706;37.656;2023-03-15T01:19:31;99371.41;;;5.45;nan
43814;BME280;29669;55.706;37.656;2023-03-15T01:21:59;99371.25;;;5.46;nan
43814;BME280;29669;55.706;37.656;2023-03-15T01:24:30;99371.09;;;5.48;nan
43814;BME280;29669;55.706;37.656;2023-03-15T01:26:58;99372.59;;;5.50;nan
43814;BME280;29669;55.706;37.656;2023-03-15T01:29:26;99371.63;;;5.51;nan
43814;BME280;29669;55.706;37.656;2023-03-15T01:31:54;99369.59;;;5.55;nan
43814;BME280;29669;55.706;37.656;2023-03-15T01:34:24;99367.69;;;5.57;nan
43814;BME280;29669;55.706;37.656;2023-03-15T01:36:55;99370.94;;;5.59;nan
43814;BME280;29669;55.706;37.656;2023-03-15T01:39:29;99372.41;;;5.61;nan
43814;BME280;29669;55.706;37.656;2023-03-15T01:41:58;99369.69;;;5.63;nan
43814;BME280;29669;55.706;37.656;2023-03-15T01:44:47;99371.88;;;5.67;nan
43814;BME280;29669;55.706;37.656;2023-03-15T01:47:16;99361.69;;;5.66;nan
43814;BME280;29669;55.706;37.656;2023-03-15T01:49:49;99369.97;;;5.69;nan
43814;BME280;29669;55.706;37.656;2023-03-15T01:52:25;99365.34;;;5.73;nan
43814;BME280;29669;55.706;37.656;2023-03-15T01:55:10;99372.09;;;5.74;nan
43814;BME280;29669;55.706;37.656;2023-03-15T01:57:56;99381.31;;;5.77;nan
43814;BME280;29669;55.706;37.656;2023-03-15T02:00:28;99378.88;;;5.75;nan
43814;BME280;29669;55.706;37.656;2023-03-15T02:03:05;99376.97;;;5.77;nan
43814;BME280;29669;55.706;37.656;2023-03-15T02:05:39;99380.47;;;5.76;nan
43814;BME280;29669;55.706;37.656;2023-03-15T02:08:21;99380.34;;;5.78;nan
43814;BME280;29669;55.706;37.656;2023-03-15T02:10:55;99387.13;;;5.79;nan
43814;BME280;29669;55.706;37.656;2023-03-15T02:13:28;99381.00;;;5.80;nan
43814;BME280;29669;55.706;37.656;2023-03-15T02:15:59;99381.69;;;5.82;nan
43814;BME280;29669;55.706;37.656;2023-03-15T02:18:35;99380.75;;;5.83;nan
43814;BME280;29669;55.706;37.656;2023-03-15T02:26:58;99380.75;;;5.83;nan
43814;BME280;29669;55.706;37.656;2023-03-15T02:29:27;99383.59;;;5.80;nan
43814;BME280;29669;55.706;37.656;2023-03-15T02:31:56;99381.56;;;5.73;nan
43814;BME280;29669;55.706;37.656;2023-03-15T02:34:25;99385.13;;;5.72;nan
43814;BME280;29669;55.706;37.656;2023-03-15T02:36:52;99388.91;;;5.68;nan
43814;BME280;29669;55.706;37.656;2023-03-15T02:39:23;99372.41;;;5.61;nan
43814;BME280;29669;55.706;37.656;2023-03-15T02:41:57;99378.81;;;5.57;nan
43814;BME280;29669;55.706;37.656;2023-03-15T02:44:31;99375.41;;;5.57;nan
43814;BME280;29669;55.706;37.656;2023-03-15T02:47:15;99384.25;;;5.54;nan
43814;BME280;29669;55.706;37.656;2023-03-15T02:49:49;99387.06;;;5.51;nan
43814;BME280;29669;55.706;37.656;2023-03-15T02:52:21;99386.03;;;5.44;nan
43814;BME280;29669;55.706;37.656;2023-03-15T02:54:49;99384.00;;;5.38;nan
43814;BME280;29669;55.706;37.656;2023-03-15T02:57:20;99390.13;;;5.28;nan
43814;BME280;29669;55.706;37.656;2023-03-15T02:59:52;99385.13;;;5.17;nan
43814;BME280;29669;55.706;37.656;2023-03-15T03:02:21;99378.38;;;5.06;nan
43814;BME280;29669;55.706;37.656;2023-03-15T03:04:52;99371.88;;;5.02;nan
43814;BME280;29669;55.706;37.656;2023-03-15T03:07:20;99378.53;;;4.95;nan
43814;BME280;29669;55.706;37.656;2023-03-15T03:09:54;99383.13;;;4.92;nan
43814;BME280;29669;55.706;37.656;2023-03-15T03:12:33;99377.44;;;4.88;nan
43814;BME280;29669;55.706;37.656;2023-03-15T03:15:01;99386.38;;;4.84;nan
43814;BME280;29669;55.706;37.656;2023-03-15T03:17:31;99385.97;;;4.79;nan
43814;BME280;29669;55.706;37.656;2023-03-15T03:20:08;99376.88;;;4.75;nan
43814;BME280;29669;55.706;37.656;2023-03-15T03:22:46;99386.25;;;4.76;nan
43814;BME280;29669;55.706;37.656;2023-03-15T03:25:17;99381.25;;;4.74;nan
43814;BME280;29669;55.706;37.656;2023-03-15T03:27:47;99389.22;;;4.71;nan
43814;BME280;29669;55.706;37.656;2023-03-15T03:30:15;99379.06;;;4.70;nan
43814;BME280;29669;55.706;37.656;2023-03-15T03:32:51;99387.72;;;4.69;nan
43814;BME280;29669;55.706;37.656;2023-03-15T03:35:22;99392.75;;;4.70;nan
43814;BME280;29669;55.706;37.656;2023-03-15T03:37:51;99392.06;;;4.68;nan
43814;BME280;29669;55.706;37.656;2023-03-15T03:40:29;99395.84;;;4.64;nan
43814;BME280;29669;55.706;37.656;2023-03-15T03:42:56;99389.19;;;4.62;nan
43814;BME280;29669;55.706;37.656;2023-03-15T03:45:24;99395.31;;;4.61;nan
43814;BME280;29669;55.706;37.656;2023-03-15T03:47:56;99392.44;;;4.64;nan
43814;BME280;29669;55.706;37.656;2023-03-15T03:50:24;99402.47;;;4.67;nan
43814;BME280;29669;55.706;37.656;2023-03-15T03:52:52;99399.91;;;4.67;nan
43814;BME280;29669;55.706;37.656;2023-03-15T03:55:28;99397.19;;;4.68;nan
43814;BME280;29669;55.706;37.656;2023-03-15T03:57:57;99401.94;;;4.73;nan
43814;BME280;29669;55.706;37.656;2023-03-15T04:00:47;99401.38;;;4.79;nan
43814;BME280;29669;55.706;37.656;2023-03-15T04:03:42;99406.53;;;4.79;nan
43814;BME280;29669;55.706;37.656;2023-03-15T04:06:36;99412.88;;;4.85;nan
43814;BME280;29669;55.706;37.656;2023-03-15T04:09:04;99411.00;;;4.87;nan
43814;BME280;29669;55.706;37.656;2023-03-15T04:11:40;99409.91;;;4.89;nan
43814;BME280;29669;55.706;37.656;2023-03-15T04:14:15;99416.69;;;4.90;nan
43814;BME280;29669;55.706;37.656;2023-03-15T04:16:45;99405.44;;;4.91;nan
43814;BME280;29669;55.706;37.656;2023-03-15T04:19:16;99414.53;;;4.95;nan
43814;BME280;29669;55.706;37.656;2023-03-15T04:21:45;99405.59;;;4.99;nan
43814;BME280;29669;55.706;37.656;2023-03-15T04:24:33;99418.16;;;5.02;nan
43814;BME280;29669;55.706;37.656;2023-03-15T04:27:13;99405.84;;;5.06;nan
43814;BME280;29669;55.706;37.656;2023-03-15T04:30:08;99419.13;;;5.11;nan
43814;BME280;29669;55.706;37.656;2023-03-15T04:32:42;99421.28;;;5.15;nan
43814;BME280;29669;55.706;37.656;2023-03-15T04:35:26;99429.66;;;5.17;nan
43814;BME280;29669;55.706;37.656;2023-03-15T04:38:20;99417.47;;;5.19;nan
43814;BME280;29669;55.706;37.656;2023-03-15T04:41:17;99428.44;;;5.21;nan
43814;BME280;29669;55.706;37.656;2023-03-15T04:44:10;99430.19;;;5.21;nan
43814;BME280;29669;55.706;37.656;2023-03-15T04:47:16;99434.41;;;5.22;nan
43814;BME280;29669;55.706;37.656;2023-03-15T04:50:08;99433.59;;;5.21;nan
43814;BME280;29669;55.706;37.656;2023-03-15T04:52:59;99431.41;;;5.17;nan
43814;BME280;29669;55.706;37.656;2023-03-15T04:55:44;99433.47;;;5.13;nan
43814;BME280;29669;55.706;37.656;2023-03-15T04:58:41;99436.47;;;5.09;nan
43814;BME280;29669;55.706;37.656;2023-03-15T05:01:35;99438.22;;;5.08;nan
43814;BME280;29669;55.706;37.656;2023-03-15T05:04:22;99446.22;;;5.05;nan
43814;BME280;29669;55.706;37.656;2023-03-15T05:07:11;99457.97;;;5.08;nan
43814;BME280;29669;55.706;37.656;2023-03-15T05:10:18;99445.94;;;5.08;nan
43814;BME280;29669;55.706;37.656;2023-03-15T05:13:03;99449.19;;;5.10;nan
43814;BME280;29669;55.706;37.656;2023-03-15T05:15:58;99456.88;;;5.10;nan
43814;BME280;29669;55.706;37.656;2023-03-15T05:18:37;99459.19;;;5.13;nan
43814;BME280;29669;55.706;37.656;2023-03-15T05:21:23;99467.72;;;5.14;nan
43814;BME280;29669;55.706;37.656;2023-03-15T05:24:20;99463.41;;;5.14;nan
43814;BME280;29669;55.706;37.656;2023-03-15T05:27:08;99478.53;;;5.17;nan
43814;BME280;29669;55.706;37.656;2023-03-15T05:29:46;99479.09;;;5.21;nan
43814;BME280;29669;55.706;37.656;2023-03-15T05:32:33;99480.31;;;5.26;nan
43814;BME280;29669;55.706;37.656;2023-03-15T05:35:11;99472.72;;;5.34;nan
43814;BME280;29669;55.706;37.656;2023-03-15T05:37:55;99476.25;;;5.43;nan
43814;BME280;29669;55.706;37.656;2023-03-15T05:40:44;99484.88;;;5.51;nan
43814;BME280;29669;55.706;37.656;2023-03-15T05:43:34;99481.91;;;5.56;nan
43814;BME280;29669;55.706;37.656;2023-03-15T05:46:17;99497.59;;;5.62;nan
43814;BME280;29669;55.706;37.656;2023-03-15T05:49:13;99491.38;;;5.65;nan
43814;BME280;29669;55.706;37.656;2023-03-15T05:51:49;99492.28;;;5.73;nan
43814;BME280;29669;55.706;37.656;2023-03-15T05:54:33;99505.72;;;5.77;nan
43814;BME280;29669;55.706;37.656;2023-03-15T05:57:19;99502.72;;;5.82;nan
43814;BME280;29669;55.706;37.656;2023-03-15T06:00:14;99506.38;;;5.89;nan
43814;BME280;29669;55.706;37.656;2023-03-15T06:02:46;99505.84;;;5.95;nan
43814;BME280;29669;55.706;37.656;2023-03-15T06:05:29;99503.78;;;5.98;nan
43814;BME280;29669;55.706;37.656;2023-03-15T06:08:01;99499.84;;;6.04;nan
43814;BME280;29669;55.706;37.656;2023-03-15T06:10:30;99512.44;;;6.07;nan
43814;BME280;29669;55.706;37.656;2023-03-15T06:13:04;99507.53;;;6.13;nan
43814;BME280;29669;55.706;37.656;2023-03-15T06:15:32;99518.13;;;6.10;nan
43814;BME280;29669;55.706;37.656;2023-03-15T06:18:00;99514.75;;;6.10;nan
43814;BME280;29669;55.706;37.656;2023-03-15T06:20:29;99513.13;;;6.09;nan
43814;BME280;29669;55.706;37.656;2023-03-15T06:23:04;99513.81;;;6.11;nan
43814;BME280;29669;55.706;37.656;2023-03-15T06:25:42;99524.09;;;6.11;nan
43814;BME280;29669;55.706;37.656;2023-03-15T06:28:09;99507.84;;;6.10;nan
43814;BME280;29669;55.706;37.656;2023-03-15T06:30:42;99511.59;;;6.16;nan
43814;BME280;29669;55.706;37.656;2023-03-15T06:33:11;99512.94;;;6.20;nan
43814;BME280;29669;55.706;37.656;2023-03-15T06:35:40;99512.25;;;6.27;nan
43814;BME280;29669;55.706;37.656;2023-03-15T06:38:09;99527.16;;;6.33;nan
43814;BME280;29669;55.706;37.656;2023-03-15T06:40:38;99532.69;;;6.38;nan
43814;BME280;29669;55.706;37.656;2023-03-15T06:43:06;99527.63;;;6.46;nan
43814;BME280;29669;55.706;37.656;2023-03-15T06:45:35;99515.13;;;6.51;nan
43814;BME280;29669;55.706;37.656;2023-03-15T06:48:03;99526.06;;;6.63;nan
43814;BME280;29669;55.706;37.656;2023-03-15T06:50:31;99525.84;;;6.74;nan
43814;BME280;29669;55.706;37.656;2023-03-15T06:53:13;99526.31;;;6.87;nan
43814;BME280;29669;55.706;37.656;2023-03-15T06:55:44;99540.50;;;7.01;nan
43814;BME280;29669;55.706;37.656;2023-03-15T06:58:13;99529.84;;;7.13;nan
43814;BME280;29669;55.706;37.656;2023-03-15T07:00:41;99532.25;;;7.32;nan
43814;BME280;29669;55.706;37.656;2023-03-15T07:03:09;99520.16;;;7.50;nan
43814;BME280;29669;55.706;37.656;2023-03-15T07:05:39;99527.13;;;7.76;nan
43814;BME280;29669;55.706;37.656;2023-03-15T07:08:07;99532.13;;;7.95;nan
43814;BME280;29669;55.706;37.656;2023-03-15T07:10:35;99530.88;;;8.07;nan
43814;BME280;29669;55.706;37.656;2023-03-15T07:13:02;99535.44;;;8.13;nan
43814;BME280;29669;55.706;37.656;2023-03-15T07:15:31;99535.13;;;8.16;nan
43814;BME280;29669;55.706;37.656;2023-03-15T07:18:01;99535.66;;;8.19;nan
43814;BME280;29669;55.706;37.656;2023-03-15T07:20:29;99537.75;;;8.24;nan
43814;BME280;29669;55.706;37.656;2023-03-15T07:23:02;99540.59;;;8.38;nan
43814;BME280;29669;55.706;37.656;2023-03-15T07:25:32;99534.25;;;8.59;nan
43814;BME280;29669;55.706;37.656;2023-03-15T07:28:14;99544.53;;;8.76;nan
43814;BME280;29669;55.706;37.656;2023-03-15T07:31:01;99560.53;;;8.80;nan
43814;BME280;29669;55.706;37.656;2023-03-15T07:33:31;99542.44;;;8.80;nan
43814;BME280;29669;55.706;37.656;2023-03-15T07:36:00;99555.69;;;8.85;nan
43814;BME280;29669;55.706;37.656;2023-03-15T07:38:30;99562.34;;;8.87;nan
43814;BME280;29669;55.706;37.656;2023-03-15T07:44:46;99563.66;;;8.91;nan
43814;BME280;29669;55.706;37.656;2023-03-15T07:47:14;99567.88;;;9.00;nan
43814;BME280;29669;55.706;37.656;2023-03-15T07:49:42;99550.44;;;9.18;nan
43814;BME280;29669;55.706;37.656;2023-03-15T07:52:10;99552.59;;;9.31;nan
43814;BME280;29669;55.706;37.656;2023-03-15T07:54:38;99566.66;;;9.44;nan
43814;BME280;29669;55.706;37.656;2023-03-15T07:57:05;99567.63;;;9.60;nan
43814;BME280;29669;55.706;37.656;2023-03-15T07:59:33;99565.22;;;9.66;nan
43814;BME280;29669;55.706;37.656;2023-03-15T08:02:02;99564.25;;;9.75;nan
43814;BME280;29669;55.706;37.656;2023-03-15T08:04:30;99572.97;;;9.82;nan
43814;BME280;29669;55.706;37.656;2023-03-15T08:06:58;99554.53;;;9.77;nan
43814;BME280;29669;55.706;37.656;2023-03-15T08:09:25;99569.25;;;9.77;nan
43814;BME280;29669;55.706;37.656;2023-03-15T08:11:53;99576.72;;;9.80;nan
43814;BME280;29669;55.706;37.656;2023-03-15T08:14:21;99562.78;;;9.81;nan
43814;BME280;29669;55.706;37.656;2023-03-15T08:16:49;99571.56;;;9.88;nan
43814;BME280;29669;55.706;37.656;2023-03-15T08:19:18;99562.13;;;10.03;nan
43814;BME280;29669;55.706;37.656;2023-03-15T08:21:46;99568.13;;;10.19;nan
43814;BME280;29669;55.706;37.656;2023-03-15T08:24:14;99568.13;;;10.27;nan
43814;BME280;29669;55.706;37.656;2023-03-15T08:26:42;99580.69;;;10.47;nan
43814;BME280;29669;55.706;37.656;2023-03-15T08:29:09;99572.72;;;10.64;nan
43814;BME280;29669;55.706;37.656;2023-03-15T08:31:37;99570.63;;;10.90;nan
43814;BME280;29669;55.706;37.656;2023-03-15T08:34:05;99569.25;;;11.10;nan
43814;BME280;29669;55.706;37.656;2023-03-15T08:36:32;99569.78;;;11.28;nan
43814;BME280;29669;55.706;37.656;2023-03-15T08:39:00;99569.28;;;11.33;nan
43814;BME280;29669;55.706;37.656;2023-03-15T08:41:28;99576.41;;;11.39;nan
43814;BME280;29669;55.706;37.656;2023-03-15T08:43:58;99581.81;;;11.52;nan
43814;BME280;29669;55.706;37.656;2023-03-15T08:46:26;99575.59;;;11.61;nan
43814;BME280;29669;55.706;37.656;2023-03-15T08:48:56;99583.19;;;11.63;nan
43814;BME280;29669;55.706;37.656;2023-03-15T08:51:24;99585.00;;;11.62;nan
43814;BME280;29669;55.706;37.656;2023-03-15T08:53:52;99577.38;;;11.61;nan
43814;BME280;29669;55.706;37.656;2023-03-15T08:56:24;99582.75;;;11.59;nan
43814;BME280;29669;55.706;37.656;2023-03-15T08:58:53;99584.19;;;11.62;nan
43814;BME280;29669;55.706;37.656;2023-03-15T09:01:22;99572.34;;;11.59;nan
43814;BME280;29669;55.706;37.656;2023-03-15T09:03:49;99579.34;;;11.59;nan
43814;BME280;29669;55.706;37.656;2023-03-15T09:06:18;99572.72;;;11.56;nan
43814;BME280;29669;55.706;37.656;2023-03-15T09:08:46;99583.03;;;11.64;nan
43814;BME280;29669;55.706;37.656;2023-03-15T09:11:13;99576.97;;;11.72;nan
43814;BME280;29669;55.706;37.656;2023-03-15T09:13:41;99568.09;;;11.66;nan
43814;BME280;29669;55.706;37.656;2023-03-15T09:16:09;99566.22;;;11.52;nan
43814;BME280;29669;55.706;37.656;2023-03-15T09:18:37;99570.38;;;11.38;nan
43814;BME280;29669;55.706;37.656;2023-03-15T09:21:08;99578.03;;;11.32;nan
43814;BME280;29669;55.706;37.656;2023-03-15T09:23:36;99568.47;;;11.32;nan
43814;BME280;29669;55.706;37.656;2023-03-15T09:26:05;99580.50;;;11.33;nan
43814;BME280;29669;55.706;37.656;2023-03-15T09:28:32;99572.06;;;11.31;nan
43814;BME280;29669;55.706;37.656;2023-03-15T09:31:03;99564.41;;;11.30;nan
43814;BME280;29669;55.706;37.656;2023-03-15T09:33:45;99575.22;;;11.42;nan
43814;BME280;29669;55.706;37.656;2023-03-15T09:36:13;99573.56;;;11.49;nan
43814;BME280;29669;55.706;37.656;2023-03-15T09:38:42;99568.97;;;11.51;nan
43814;BME280;29669;55.706;37.656;2023-03-15T09:41:18;99562.63;;;11.53;nan
43814;BME280;29669;55.706;37.656;2023-03-15T09:57:45;99568.84;;;11.75;nan
43814;BME280;29669;55.706;37.656;2023-03-15T10:00:26;99560.63;;;11.86;nan
43814;BME280;29669;55.706;37.656;2023-03-15T10:03:00;99562.28;;;12.16;nan
43814;BME280;29669;55.706;37.656;2023-03-15T10:05:40;99558.53;;;12.33;nan
43814;BME280;29669;55.706;37.656;2023-03-15T10:08:18;99562.06;;;12.55;nan
43814;BME280;29669;55.706;37.656;2023-03-15T10:10:51;99554.13;;;12.63;nan
43814;BME280;29669;55.706;37.656;2023-03-15T10:13:31;99555.03;;;12.70;nan
43814;BME280;29669;55.706;37.656;2023-03-15T10:16:18;99537.50;;;12.78;nan
43814;BME280;29669;55.706;37.656;2023-03-15T10:27:49;99535.69;;;12.93;nan
43814;BME280;29669;55.706;37.656;2023-03-15T10:30:20;99539.66;;;13.25;nan
43814;BME280;29669;55.706;37.656;2023-03-15T10:35:22;99528.41;;;13.46;nan
43814;BME280;29669;55.706;37.656;2023-03-15T10:37:50;99539.72;;;13.32;nan
43814;BME280;29669;55.706;37.656;2023-03-15T10:43:20;99540.56;;;13.17;nan
43814;BME280;29669;55.706;37.656;2023-03-15T10:48:38;99560.31;;;12.76;nan
43814;BME280;29669;55.706;37.656;2023-03-15T10:51:15;99563.66;;;12.56;nan
43814;BME280;29669;55.706;37.656;2023-03-15T10:56:30;99557.34;;;12.21;nan
43814;BME280;29669;55.706;37.656;2023-03-15T10:59:02;99556.19;;;12.09;nan
43814;BME280;29669;55.706;37.656;2023-03-15T11:01:39;99557.22;;;12.22;nan
43814;BME280;29669;55.706;37.656;2023-03-15T11:04:24;99562.22;;;12.39;nan
43814;BME280;29669;55.706;37.656;2023-03-15T11:07:02;99561.06;;;12.56;nan
43814;BME280;29669;55.706;37.656;2023-03-15T11:09:41;99559.44;;;12.69;nan
43814;BME280;29669;55.706;37.656;2023-03-15T11:14:59;99560.28;;;12.91;nan
43814;BME280;29669;55.706;37.656;2023-03-15T11:17:43;99557.69;;;12.91;nan
43814;BME280;29669;55.706;37.656;2023-03-15T11:20:35;99551.59;;;12.84;nan
43814;BME280;29669;55.706;37.656;2023-03-15T11:23:21;99549.91;;;12.76;nan
43814;BME280;29669;55.706;37.656;2023-03-15T11:25:54;99557.09;;;12.60;nan
43814;BME280;29669;55.706;37.656;2023-03-15T11:28:28;99547.38;;;12.68;nan
43814;BME280;29669;55.706;37.656;2023-03-15T11:30:58;99569.47;;;12.72;nan
43814;BME280;29669;55.706;37.656;2023-03-15T11:36:22;99563.75;;;12.62;nan
43814;BME280;29669;55.706;37.656;2023-03-15T11:38:54;99560.53;;;12.60;nan
43814;BME280;29669;55.706;37.656;2023-03-15T11:44:15;99558.53;;;12.77;nan
43814;BME280;29669;55.706;37.656;2023-03-15T11:46:49;99550.00;;;12.83;nan
43814;BME280;29669;55.706;37.656;2023-03-15T11:49:48;99542.78;;;12.99;nan
43814;BME280;29669;55.706;37.656;2023-03-15T11:52:28;99548.97;;;13.13;nan
43814;BME280;29669;55.706;37.656;2023-03-15T11:55:00;99533.06;;;13.08;nan
43814;BME280;29669;55.706;37.656;2023-03-15T11:57:42;99546.47;;;12.76;nan
43814;BME280;29669;55.706;37.656;2023-03-15T12:02:49;99547.22;;;12.55;nan
43814;BME280;29669;55.706;37.656;2023-03-15T12:08:49;99562.84;;;12.55;nan
43814;BME280;29669;55.706;37.656;2023-03-15T12:16:38;99575.59;;;12.36;nan
43814;BME280;29669;55.706;37.656;2023-03-15T12:19:18;99572.81;;;12.22;nan
43814;BME280;29669;55.706;37.656;2023-03-15T12:21:52;99570.63;;;12.11;nan
43814;BME280;29669;55.706;37.656;2023-03-15T12:24:30;99570.25;;;12.00;nan
43814;BME280;29669;55.706;37.656;2023-03-15T12:27:13;99573.81;;;11.84;nan
43814;BME280;29669;55.706;37.656;2023-03-15T12:29:44;99580.63;;;11.85;nan
43814;BME280;29669;55.706;37.656;2023-03-15T12:32:19;99579.66;;;11.86;nan
43814;BME280;29669;55.706;37.656;2023-03-15T12:34:52;99581.00;;;11.97;nan
43814;BME280;29669;55.706;37.656;2023-03-15T12:37:45;99571.88;;;12.15;nan
43814;BME280;29669;55.706;37.656;2023-03-15T12:56:55;99578.41;;;13.13;nan
43814;BME280;29669;55.706;37.656;2023-03-15T13:16:11;99575.38;;;14.84;nan
43814;BME280;29669;55.706;37.656;2023-03-15T13:18:53;99568.13;;;14.79;nan
43814;BME280;29669;55.706;37.656;2023-03-15T13:21:34;99565.53;;;14.79;nan
43814;BME280;29669;55.706;37.656;2023-03-15T13:24:11;99561.16;;;14.99;nan
43814;BME280;29669;55.706;37.656;2023-03-15T13:29:31;99556.50;;;14.88;nan
43814;BME280;29669;55.706;37.656;2023-03-15T13:34:34;99550.13;;;15.04;nan
43814;BME280;29669;55.706;37.656;2023-03-15T13:37:11;99547.34;;;15.19;nan
43814;BME280;29669;55.706;37.656;2023-03-15T13:40:02;99552.16;;;15.22;nan
43814;BME280;29669;55.706;37.656;2023-03-15T13:42:30;99556.31;;;15.57;nan
43814;BME280;29669;55.706;37.656;2023-03-15T13:47:35;99559.94;;;16.08;nan
43814;BME280;29669;55.706;37.656;2023-03-15T13:50:03;99561.13;;;16.25;nan
43814;BME280;29669;55.706;37.656;2023-03-15T13:52:32;99550.03;;;16.36;nan
43814;BME280;29669;55.706;37.656;2023-03-15T13:55:01;99558.28;;;16.40;nan
43814;BME280;29669;55.706;37.656;2023-03-15T13:57:33;99552.22;;;16.46;nan
43814;BME280;29669;55.706;37.656;2023-03-15T14:00:05;99544.56;;;16.57;nan
43814;BME280;29669;55.706;37.656;2023-03-15T14:02:47;99551.81;;;16.49;nan
43814;BME280;29669;55.706;37.656;2023-03-15T14:05:20;99551.41;;;16.45;nan
43814;BME280;29669;55.706;37.656;2023-03-15T14:08:00;99546.59;;;16.42;nan
43814;BME280;29669;55.706;37.656;2023-03-15T14:13:45;99557.66;;;16.57;nan
43814;BME280;29669;55.706;37.656;2023-03-15T14:16:15;99549.53;;;16.72;nan
43814;BME280;29669;55.706;37.656;2023-03-15T14:18:45;99544.91;;;16.67;nan
43814;BME280;29669;55.706;37.656;2023-03-15T14:21:21;99548.25;;;16.17;nan
43814;BME280;29669;55.706;37.656;2023-03-15T14:24:04;99552.81;;;15.37;nan
43814;BME280;29669;55.706;37.656;2023-03-15T14:26:58;99553.69;;;14.83;nan
43814;BME280;29669;55.706;37.656;2023-03-15T14:29:32;99549.44;;;14.14;nan
43814;BME280;29669;55.706;37.656;2023-03-15T14:32:28;99554.81;;;14.06;nan
43814;BME280;29669;55.706;37.656;2023-03-15T14:35:31;99563.38;;;13.72;nan
43814;BME280;29669;55.706;37.656;2023-03-15T14:38:20;99565.41;;;13.77;nan
43814;BME280;29669;55.706;37.656;2023-03-15T14:40:52;99560.03;;;14.06;nan
43814;BME280;29669;55.706;37.656;2023-03-15T14:43:26;99554.38;;;14.02;nan
43814;BME280;29669;55.706;37.656;2023-03-15T14:45:54;99560.63;;;13.80;nan
43814;BME280;29669;55.706;37.656;2023-03-15T14:48:29;99566.50;;;13.04;nan
43814;BME280;29669;55.706;37.656;2023-03-15T14:51:01;99570.81;;;12.68;nan
43814;BME280;29669;55.706;37.656;2023-03-15T14:53:35;99573.53;;;12.16;nan
43814;BME280;29669;55.706;37.656;2023-03-15T14:56:04;99573.75;;;11.70;nan
43814;BME280;29669;55.706;37.656;2023-03-15T14:58:32;99564.91;;;11.56;nan
43814;BME280;29669;55.706;37.656;2023-03-15T15:01:01;99565.44;;;11.74;nan
43814;BME280;29669;55.706;37.656;2023-03-15T15:03:40;99572.81;;;11.40;nan
43814;BME280;29669;55.706;37.656;2023-03-15T15:06:12;99572.38;;;10.67;nan
43814;BME280;29669;55.706;37.656;2023-03-15T15:08:55;99575.91;;;9.95;nan
43814;BME280;29669;55.706;37.656;2023-03-15T15:11:25;99576.03;;;9.37;nan
43814;BME280;29669;55.706;37.656;2023-03-15T15:13:53;99580.47;;;8.95;nan
43814;BME280;29669;55.706;37.656;2023-03-15T15:16:21;99577.09;;;8.61;nan
43814;BME280;29669;55.706;37.656;2023-03-15T15:18:52;99585.72;;;8.36;nan
43814;BME280;29669;55.706;37.656;2023-03-15T15:21:28;99582.31;;;8.18;nan
43814;BME280;29669;55.706;37.656;2023-03-15T15:24:02;99581.25;;;8.03;nan
43814;BME280;29669;55.706;37.656;2023-03-15T15:26:32;99582.09;;;7.86;nan
43814;BME280;29669;55.706;37.656;2023-03-15T15:29:00;99587.00;;;7.71;nan
43814;BME280;29669;55.706;37.656;2023-03-15T15:31:29;99592.53;;;7.58;nan
43814;BME280;29669;55.706;37.656;2023-03-15T15:34:01;99599.84;;;7.45;nan
43814;BME280;29669;55.706;37.656;2023-03-15T15:36:35;99600.03;;;7.34;nan
43814;BME280;29669;55.706;37.656;2023-03-15T15:39:15;99605.56;;;7.22;nan
43814;BME280;29669;55.706;37.656;2023-03-15T15:41:46;99616.75;;;7.13;nan
43814;BME280;29669;55.706;37.656;2023-03-15T15:44:16;99610.25;;;7.09;nan